Time,TemperatureF,DewpointF,PressureIn,WindDirection,WindDirectionDegrees,WindSpeedMPH,WindSpeedGustMPH,Humidity,HourlyPrecipIn,Conditions,Clouds,dailyrainin,SoftwareType,DateUTC
2013-02-05 00:09:00,46.2,44.9,30.11,SSE,147,0.0,0.0,95,0.00,,,-99.99,Weather View 32 v60,2013-02-05 08:09:00,
2013-02-05 00:20:00,46.4,45.0,30.11,SSE,147,0.0,0.0,95,0.00,,,-99.99,Weather View 32 v60,2013-02-05 08:20:00,
2013-02-05 00:29:00,46.8,45.4,30.14,WSW,252,0.0,0.0,95,0.00,,,-99.99,Weather View 32 v60,2013-02-05 08:29:00,
2013-02-05 00:39:00,46.9,45.9,30.14,WSW,252,0.0,0.0,96,0.00,,,-99.99,Weather View 32 v60,2013-02-05 08:39:00,
2013-02-05 00:49:00,46.6,45.2,30.11,WSW,252,0.0,0.0,95,0.00,,,-99.99,Weather View 32 v60,2013-02-05 08:49:00,
2013-02-05 00:59:00,46.2,44.9,30.11,WSW,252,0.0,0.0,95,0.00,,,-99.99,Weather View 32 v60,2013-02-05 08:59:00,
2013-02-05 01:09:00,45.9,44.5,30.11,WSW,252,0.0,0.0,95,0.00,,,-99.99,Weather View 32 v60,2013-02-05 09:09:00,
2013-02-05 01:19:00,45.9,44.5,30.11,WSW,252,0.0,0.0,95,0.00,,,-99.99,Weather View 32 v60,2013-02-05 09:19:00,
2013-02-05 01:29:00,46.0,44.7,30.11,WSW,252,0.0,0.0,95,0.00,,,-99.99,Weather View 32 v60,2013-02-05 09:29:00,
2013-02-05 01:39:00,46.2,44.9,30.11,WSW,252,0.0,0.0,95,0.00,,,-99.99,Weather View 32 v60,2013-02-05 09:39:00,
2013-02-05 01:49:00,46.6,45.2,30.11,WSW,253,0.0,0.0,95,0.00,,,-99.99,Weather View 32 v60,2013-02-05 09:49:00,
2013-02-05 01:59:00,46.8,45.4,30.11,WSW,253,0.0,0.0,95,0.00,,,-99.99,Weather View 32 v60,2013-02-05 09:59:00,
2013-02-05 02:09:00,46.8,45.4,30.11,SSW,209,0.0,0.0,95,0.00,,,-99.99,Weather View 32 v60,2013-02-05 10:09:00,
2013-02-05 02:19:00,46.8,45.4,30.11,West,262,0.0,0.0,95,0.00,,,-99.99,Weather View 32 v60,2013-02-05 10:19:00,
2013-02-05 02:29:00,46.9,45.3,30.11,SW,214,0.0,0.0,94,0.00,,,-99.99,Weather View 32 v60,2013-02-05 10:29:00,
2013-02-05 02:39:00,46.9,45.0,30.11,West,279,0.0,0.0,93,0.00,,,-99.99,Weather View 32 v60,2013-02-05 10:39:00,
2013-02-05 02:49:00,47.1,44.9,30.11,WSW,257,0.0,0.0,92,0.00,,,-99.99,Weather View 32 v60,2013-02-05 10:49:00,
2013-02-05 02:59:00,47.1,44.6,30.11,West,276,0.0,0.0,91,0.00,,,-99.99,Weather View 32 v60,2013-02-05 10:59:00,
2013-02-05 03:09:00,47.1,44.6,30.11,WSW,252,0.0,0.0,91,0.00,,,-99.99,Weather View 32 v60,2013-02-05 11:09:00,
2013-02-05 03:19:00,47.1,44.3,30.11,WSW,253,0.0,0.0,90,0.00,,,-99.99,Weather View 32 v60,2013-02-05 11:19:00,
2013-02-05 03:29:00,47.1,43.7,30.11,WSW,257,0.0,0.0,88,0.00,,,-99.99,Weather View 32 v60,2013-02-05 11:29:00,
2013-02-05 03:39:00,47.3,43.9,30.11,West,261,0.0,0.0,88,0.00,,,-99.99,Weather View 32 v60,2013-02-05 11:39:00,
2013-02-05 03:49:00,47.3,43.6,30.11,West,261,0.0,0.0,87,0.00,,,-99.99,Weather View 32 v60,2013-02-05 11:49:00,
2013-02-05 03:59:00,47.3,43.6,30.11,WSW,240,0.0,0.0,87,0.00,,,-99.99,Weather View 32 v60,2013-02-05 11:59:00,
2013-02-05 04:09:00,47.3,43.6,30.11,WSW,245,0.0,0.0,87,0.00,,,-99.99,Weather View 32 v60,2013-02-05 12:09:00,
2013-02-05 04:19:00,47.3,43.3,30.11,WSW,245,0.0,0.0,86,0.00,,,-99.99,Weather View 32 v60,2013-02-05 12:19:00,
2013-02-05 04:29:00,47.1,43.1,30.11,West,265,0.0,0.0,86,0.00,,,-99.99,Weather View 32 v60,2013-02-05 12:29:00,
2013-02-05 04:40:00,47.1,42.8,30.11,SW,224,0.0,0.0,85,0.00,,,-99.99,Weather View 32 v60,2013-02-05 12:40:00,
2013-02-05 04:49:00,47.1,42.5,30.11,WSW,238,0.0,0.0,84,0.00,,,-99.99,Weather View 32 v60,2013-02-05 12:49:00,
2013-02-05 04:59:00,47.1,42.5,30.11,WSW,254,0.0,0.0,84,0.00,,,-99.99,Weather View 32 v60,2013-02-05 12:59:00,
2013-02-05 05:09:00,47.1,42.5,30.11,WSW,255,0.0,0.0,84,0.00,,,-99.99,Weather View 32 v60,2013-02-05 13:09:00,
2013-02-05 05:19:00,47.1,42.2,30.11,WNW,303,0.0,0.0,83,0.00,,,-99.99,Weather View 32 v60,2013-02-05 13:19:00,
2013-02-05 05:29:00,47.1,42.2,30.08,West,266,0.0,0.0,83,0.00,,,-99.99,Weather View 32 v60,2013-02-05 13:29:00,
2013-02-05 05:39:00,46.9,41.7,30.08,West,269,0.0,0.0,82,0.00,,,-99.99,Weather View 32 v60,2013-02-05 13:39:00,
2013-02-05 05:49:00,46.9,41.1,30.08,WSW,257,0.0,0.0,80,0.00,,,-99.99,Weather View 32 v60,2013-02-05 13:49:00,
2013-02-05 05:59:00,46.9,41.4,30.08,SW,215,0.0,0.0,81,0.00,,,-99.99,Weather View 32 v60,2013-02-05 13:59:00,
2013-02-05 06:09:00,47.1,41.6,30.08,SW,215,0.0,0.0,81,0.00,,,-99.99,Weather View 32 v60,2013-02-05 14:09:00,
2013-02-05 06:19:00,47.1,41.6,30.08,SW,217,0.0,0.0,81,0.00,,,-99.99,Weather View 32 v60,2013-02-05 14:19:00,
2013-02-05 06:29:00,47.1,41.6,30.11,West,276,0.0,0.0,81,0.00,,,-99.99,Weather View 32 v60,2013-02-05 14:29:00,
2013-02-05 06:39:00,47.1,41.6,30.11,West,261,0.0,0.0,81,0.00,,,-99.99,Weather View 32 v60,2013-02-05 14:39:00,
2013-02-05 06:49:00,46.9,40.4,30.11,WSW,238,0.0,0.0,78,0.00,,,-99.99,Weather View 32 v60,2013-02-05 14:49:00,
2013-02-05 06:59:00,47.1,40.6,30.11,WNW,282,0.0,0.0,78,0.00,,,-99.99,Weather View 32 v60,2013-02-05 14:59:00,
2013-02-05 07:09:00,47.1,39.9,30.11,WSW,255,0.0,0.0,76,0.00,,,-99.99,Weather View 32 v60,2013-02-05 15:09:00,
2013-02-05 07:19:00,47.1,39.9,30.11,WSW,248,0.0,0.0,76,0.00,,,-99.99,Weather View 32 v60,2013-02-05 15:19:00,
2013-02-05 07:30:00,47.3,40.1,30.11,WSW,248,0.0,0.0,76,0.00,,,-99.99,Weather View 32 v60,2013-02-05 15:30:00,
2013-02-05 07:39:00,47.3,40.1,30.11,West,259,0.0,0.0,76,0.00,,,-99.99,Weather View 32 v60,2013-02-05 15:39:00,
2013-02-05 07:49:00,47.7,40.1,30.11,SW,230,0.0,0.0,75,0.00,,,-99.99,Weather View 32 v60,2013-02-05 15:49:00,
2013-02-05 08:00:00,47.8,39.9,30.11,West,259,0.0,0.0,74,0.00,,,-99.99,Weather View 32 v60,2013-02-05 16:00:00,
2013-02-05 08:09:00,48.2,40.3,30.11,WSW,244,0.0,0.0,74,0.00,,,-99.99,Weather View 32 v60,2013-02-05 16:09:00,
2013-02-05 08:19:00,48.7,40.5,30.11,SSW,205,0.0,0.0,73,0.00,,,-99.99,Weather View 32 v60,2013-02-05 16:19:00,
2013-02-05 08:30:00,48.9,40.6,30.14,WSW,237,0.0,0.0,73,0.00,,,-99.99,Weather View 32 v60,2013-02-05 16:30:00,
2013-02-05 08:39:00,49.3,39.9,30.14,SSW,207,0.0,0.0,70,0.00,,,-99.99,Weather View 32 v60,2013-02-05 16:39:00,
2013-02-05 08:49:00,50.0,39.8,30.14,WSW,256,0.0,0.0,68,0.00,,,-99.99,Weather View 32 v60,2013-02-05 16:49:00,
2013-02-05 08:59:00,52.2,39.5,30.14,SSW,209,0.0,0.0,62,0.00,,,-99.99,Weather View 32 v60,2013-02-05 16:59:00,
2013-02-05 09:09:00,53.6,38.7,30.14,SW,223,0.0,0.0,57,0.00,,,-99.99,Weather View 32 v60,2013-02-05 17:09:00,
2013-02-05 09:19:00,53.4,37.2,30.14,SW,229,0.0,0.0,54,0.00,,,-99.99,Weather View 32 v60,2013-02-05 17:19:00,
2013-02-05 09:25:00,53.4,37.2,30.14,SW,229,0.0,0.0,54,0.00,,,-99.99,Weather View 32 v60,2013-02-05 17:25:00,
2013-02-05 09:40:00,53.4,38.1,30.14,West,271,0.0,0.0,56,0.00,,,-99.99,Weather View 32 v60,2013-02-05 17:40:00,
2013-02-05 09:50:00,55.6,37.2,30.14,SSW,213,0.0,0.0,50,0.00,,,-99.99,Weather View 32 v60,2013-02-05 17:50:00,
2013-02-05 10:00:00,56.1,37.7,30.14,West,281,0.0,0.0,50,0.00,,,-99.99,Weather View 32 v60,2013-02-05 18:00:00,
2013-02-05 10:10:00,56.3,37.3,30.14,SE,139,0.0,0.0,49,0.00,,,-99.99,Weather View 32 v60,2013-02-05 18:10:00,
2013-02-05 10:20:00,56.8,37.8,30.14,West,278,0.0,0.0,49,0.00,,,-99.99,Weather View 32 v60,2013-02-05 18:20:00,
2013-02-05 10:25:00,56.8,37.8,30.14,West,278,0.0,0.0,49,0.00,,,-99.99,Weather View 32 v60,2013-02-05 18:25:00,
2013-02-05 10:40:00,57.7,38.1,30.14,SE,125,0.0,0.0,48,0.00,,,-99.99,Weather View 32 v60,2013-02-05 18:40:00,
2013-02-05 10:50:00,57.6,38.5,30.14,WSW,248,0.0,0.0,49,0.00,,,-99.99,Weather View 32 v60,2013-02-05 18:50:00,
2013-02-05 11:00:00,57.0,38.0,30.14,WSW,257,0.0,0.0,49,0.00,,,-99.99,Weather View 32 v60,2013-02-05 19:00:00,
2013-02-05 11:10:00,56.7,38.2,30.14,SW,215,0.0,0.0,50,0.00,,,-99.99,Weather View 32 v60,2013-02-05 19:10:00,
2013-02-05 11:20:00,57.6,38.5,30.14,WSW,237,0.0,0.0,49,0.00,,,-99.99,Weather View 32 v60,2013-02-05 19:20:00,
2013-02-05 11:26:00,57.6,38.5,30.14,WSW,237,0.0,0.0,49,0.00,,,-99.99,Weather View 32 v60,2013-02-05 19:26:00,
2013-02-05 11:39:00,57.9,38.8,30.11,WSW,256,0.0,0.0,49,0.00,,,-99.99,Weather View 32 v60,2013-02-05 19:39:00,
2013-02-05 11:50:00,57.9,38.8,30.11,WNW,298,0.0,0.0,49,0.00,,,-99.99,Weather View 32 v60,2013-02-05 19:50:00,
2013-02-05 12:00:00,58.5,39.3,30.11,West,259,0.0,0.0,49,0.00,,,-99.99,Weather View 32 v60,2013-02-05 20:00:00,
2013-02-05 12:09:00,58.8,38.6,30.11,West,269,0.0,0.0,47,0.00,,,-99.99,Weather View 32 v60,2013-02-05 20:09:00,
2013-02-05 12:19:00,58.1,39.0,30.11,SW,230,0.0,0.0,49,0.00,,,-99.99,Weather View 32 v60,2013-02-05 20:19:00,
2013-02-05 12:26:00,58.1,39.0,30.11,SW,230,0.0,0.0,49,0.00,,,-99.99,Weather View 32 v60,2013-02-05 20:26:00,
2013-02-05 12:39:00,57.9,39.3,30.11,SW,223,0.0,0.0,50,0.00,,,-99.99,Weather View 32 v60,2013-02-05 20:39:00,
2013-02-05 12:50:00,57.6,39.0,30.11,West,259,0.0,0.0,50,0.00,,,-99.99,Weather View 32 v60,2013-02-05 20:50:00,
2013-02-05 12:59:00,57.9,38.8,30.11,WSW,252,0.0,0.0,49,0.00,,,-99.99,Weather View 32 v60,2013-02-05 20:59:00,
2013-02-05 13:09:00,58.1,39.0,30.11,SW,229,0.0,0.0,49,0.00,,,-99.99,Weather View 32 v60,2013-02-05 21:09:00,
2013-02-05 13:19:00,57.7,39.2,30.11,SSW,208,0.0,0.0,50,0.00,,,-99.99,Weather View 32 v60,2013-02-05 21:19:00,
2013-02-05 13:27:00,57.7,39.2,30.11,SSW,208,0.0,0.0,50,0.00,,,-99.99,Weather View 32 v60,2013-02-05 21:27:00,
2013-02-05 13:39:00,58.5,39.8,30.11,SW,228,0.0,0.0,50,0.00,,,-99.99,Weather View 32 v60,2013-02-05 21:39:00,
2013-02-05 13:49:00,58.8,39.7,30.08,WSW,255,0.0,0.0,49,0.00,,,-99.99,Weather View 32 v60,2013-02-05 21:49:00,
2013-02-05 13:59:00,59.4,39.6,30.08,SSW,200,0.0,0.0,48,0.00,,,-99.99,Weather View 32 v60,2013-02-05 21:59:00,
2013-02-05 14:09:00,60.6,39.7,30.08,West,261,0.0,0.0,46,0.00,,,-99.99,Weather View 32 v60,2013-02-05 22:09:00,
2013-02-05 14:19:00,60.3,39.3,30.08,SW,222,0.0,0.0,46,0.00,,,-99.99,Weather View 32 v60,2013-02-05 22:19:00,
2013-02-05 14:27:00,60.3,39.3,30.08,SW,222,0.0,0.0,46,0.00,,,-99.99,Weather View 32 v60,2013-02-05 22:27:00,
2013-02-05 14:39:00,59.4,40.2,30.08,SW,214,0.0,0.0,49,0.00,,,-99.99,Weather View 32 v60,2013-02-05 22:39:00,
2013-02-05 14:49:00,59.9,40.1,30.08,WSW,237,0.0,0.0,48,0.00,,,-99.99,Weather View 32 v60,2013-02-05 22:49:00,
2013-02-05 14:59:00,59.9,40.6,30.08,WSW,249,0.0,0.0,49,0.00,,,-99.99,Weather View 32 v60,2013-02-05 22:59:00,
2013-02-05 15:09:00,59.9,40.1,30.08,WSW,254,0.0,0.0,48,0.00,,,-99.99,Weather View 32 v60,2013-02-05 23:09:00,
2013-02-05 15:19:00,59.4,41.2,30.11,WNW,287,0.0,0.0,51,0.00,,,-99.99,Weather View 32 v60,2013-02-05 23:19:00,
2013-02-05 15:28:00,59.4,41.2,30.11,WNW,287,0.0,0.0,51,0.00,,,-99.99,Weather View 32 v60,2013-02-05 23:28:00,
2013-02-05 15:39:00,60.1,40.8,30.11,SW,226,0.0,0.0,49,0.00,,,-99.99,Weather View 32 v60,2013-02-05 23:39:00,
2013-02-05 15:49:00,59.7,41.5,30.11,SSW,207,0.0,0.0,51,0.00,,,-99.99,Weather View 32 v60,2013-02-05 23:49:00,
2013-02-05 15:59:00,59.5,41.9,30.11,West,268,0.0,0.0,52,0.00,,,-99.99,Weather View 32 v60,2013-02-05 23:59:00,
2013-02-05 16:09:00,58.8,41.7,30.11,West,265,0.0,0.0,53,0.00,,,-99.99,Weather View 32 v60,2013-02-06 00:09:00,
2013-02-05 16:19:00,58.1,42.5,30.11,West,269,0.0,0.0,56,0.00,,,-99.99,Weather View 32 v60,2013-02-06 00:19:00,
2013-02-05 16:28:00,58.1,42.5,30.11,West,269,0.0,0.0,56,0.00,,,-99.99,Weather View 32 v60,2013-02-06 00:28:00,
2013-02-05 16:39:00,57.4,42.7,30.11,SSW,213,0.0,0.0,58,0.00,,,-99.99,Weather View 32 v60,2013-02-06 00:39:00,
2013-02-05 16:49:00,56.1,43.2,30.11,South,185,0.0,0.0,62,0.00,,,-99.99,Weather View 32 v60,2013-02-06 00:49:00,
2013-02-05 16:59:00,55.0,43.9,30.11,SW,231,0.0,0.0,66,0.00,,,-99.99,Weather View 32 v60,2013-02-06 00:59:00,
2013-02-05 17:09:00,54.3,44.0,30.11,WSW,239,0.0,0.0,68,0.00,,,-99.99,Weather View 32 v60,2013-02-06 01:09:00,
2013-02-05 17:19:00,53.6,44.0,30.11,SW,228,0.0,0.0,70,0.00,,,-99.99,Weather View 32 v60,2013-02-06 01:19:00,
2013-02-05 17:29:00,53.6,44.0,30.11,SW,228,0.0,0.0,70,0.00,,,-99.99,Weather View 32 v60,2013-02-06 01:29:00,
2013-02-05 17:39:00,52.7,43.9,30.11,SW,216,0.0,0.0,72,0.00,,,-99.99,Weather View 32 v60,2013-02-06 01:39:00,
2013-02-05 17:50:00,52.2,44.1,30.11,SSW,212,0.0,0.0,74,0.00,,,-99.99,Weather View 32 v60,2013-02-06 01:50:00,
2013-02-05 18:00:00,51.8,44.1,30.11,WSW,244,0.0,0.0,75,0.00,,,-99.99,Weather View 32 v60,2013-02-06 02:00:00,
2013-02-05 18:09:00,51.4,44.5,30.11,WSW,245,0.0,0.0,77,0.00,,,-99.99,Weather View 32 v60,2013-02-06 02:09:00,
2013-02-05 18:20:00,51.3,44.6,30.11,WSW,237,0.0,0.0,78,0.00,,,-99.99,Weather View 32 v60,2013-02-06 02:20:00,
2013-02-05 18:29:00,50.9,44.6,30.11,West,267,0.0,0.0,79,0.00,,,-99.99,Weather View 32 v60,2013-02-06 02:29:00,
2013-02-05 18:39:00,50.5,44.6,30.11,WSW,243,0.0,0.0,80,0.00,,,-99.99,Weather View 32 v60,2013-02-06 02:39:00,
2013-02-05 18:50:00,50.2,44.2,30.11,WSW,246,0.0,0.0,80,0.00,,,-99.99,Weather View 32 v60,2013-02-06 02:50:00,
2013-02-05 18:59:00,50.0,44.4,30.11,SW,223,0.0,0.0,81,0.00,,,-99.99,Weather View 32 v60,2013-02-06 02:59:00,
2013-02-05 19:09:00,50.2,45.5,30.11,SSW,208,0.0,0.0,84,0.00,,,-99.99,Weather View 32 v60,2013-02-06 03:09:00,
2013-02-05 19:19:00,50.2,45.5,30.11,WSW,252,0.0,0.0,84,0.00,,,-99.99,Weather View 32 v60,2013-02-06 03:19:00,
2013-02-05 19:30:00,50.2,45.8,30.11,WSW,248,0.0,0.0,85,0.00,,,-99.99,Weather View 32 v60,2013-02-06 03:30:00,
2013-02-05 19:40:00,50.0,45.7,30.11,SW,227,0.0,0.0,85,0.00,,,-99.99,Weather View 32 v60,2013-02-06 03:40:00,
2013-02-05 19:49:00,49.6,45.3,30.11,SW,227,0.0,0.0,85,0.00,,,-99.99,Weather View 32 v60,2013-02-06 03:49:00,
2013-02-05 20:00:00,49.1,44.8,30.14,SW,227,0.0,0.0,85,0.00,,,-99.99,Weather View 32 v60,2013-02-06 04:00:00,
2013-02-05 20:09:00,49.3,45.3,30.14,WSW,257,0.0,0.0,86,0.00,,,-99.99,Weather View 32 v60,2013-02-06 04:09:00,
2013-02-05 20:20:00,49.6,45.9,30.14,WSW,258,0.0,0.0,87,0.00,,,-99.99,Weather View 32 v60,2013-02-06 04:20:00,
2013-02-05 20:29:00,50.0,46.6,30.14,NNW,333,0.0,0.0,88,0.00,,,-99.99,Weather View 32 v60,2013-02-06 04:29:00,
2013-02-05 20:39:00,50.4,46.9,30.14,WNW,288,0.0,0.0,88,0.00,,,-99.99,Weather View 32 v60,2013-02-06 04:39:00,
2013-02-05 20:49:00,50.4,46.6,30.14,SSW,211,0.0,0.0,87,0.00,,,-99.99,Weather View 32 v60,2013-02-06 04:49:00,
2013-02-05 21:00:00,50.4,46.3,30.14,SSW,212,0.0,0.0,86,0.00,,,-99.99,Weather View 32 v60,2013-02-06 05:00:00,
2013-02-05 21:09:00,50.4,46.3,30.14,SSW,212,0.0,0.0,86,0.00,,,-99.99,Weather View 32 v60,2013-02-06 05:09:00,
2013-02-05 21:19:00,50.4,46.3,30.14,SSW,212,0.0,0.0,86,0.00,,,-99.99,Weather View 32 v60,2013-02-06 05:19:00,
2013-02-05 21:29:00,50.0,45.7,30.14,SSW,212,0.0,0.0,85,0.00,,,-99.99,Weather View 32 v60,2013-02-06 05:29:00,
2013-02-05 21:40:00,49.6,45.3,30.14,SSW,212,0.0,0.0,85,0.00,,,-99.99,Weather View 32 v60,2013-02-06 05:40:00,
2013-02-05 21:50:00,49.3,45.0,30.14,SSW,212,0.0,0.0,85,0.00,,,-99.99,Weather View 32 v60,2013-02-06 05:50:00,
2013-02-05 21:59:00,48.7,44.4,30.14,SSW,212,0.0,0.0,85,0.00,,,-99.99,Weather View 32 v60,2013-02-06 05:59:00,
2013-02-05 22:10:00,48.2,44.2,30.14,SSW,212,0.0,0.0,86,0.00,,,-99.99,Weather View 32 v60,2013-02-06 06:10:00,
2013-02-05 22:19:00,47.7,43.7,30.17,SSW,212,0.0,0.0,86,0.00,,,-99.99,Weather View 32 v60,2013-02-06 06:19:00,
2013-02-05 22:29:00,47.1,43.1,30.17,SSW,212,0.0,0.0,86,0.00,,,-99.99,Weather View 32 v60,2013-02-06 06:29:00,
2013-02-05 22:40:00,46.6,42.6,30.17,SSW,212,0.0,0.0,86,0.00,,,-99.99,Weather View 32 v60,2013-02-06 06:40:00,
2013-02-05 22:49:00,46.0,42.1,30.17,SSW,212,0.0,0.0,86,0.00,,,-99.99,Weather View 32 v60,2013-02-06 06:49:00,
2013-02-05 22:59:00,45.9,42.2,30.17,SSW,212,0.0,0.0,87,0.00,,,-99.99,Weather View 32 v60,2013-02-06 06:59:00,
2013-02-05 23:09:00,45.3,41.7,30.17,SSW,212,0.0,0.0,87,0.00,,,-99.99,Weather View 32 v60,2013-02-06 07:09:00,
2013-02-05 23:20:00,44.8,41.4,30.17,SSW,212,0.0,0.0,88,0.00,,,-99.99,Weather View 32 v60,2013-02-06 07:20:00,
2013-02-05 23:30:00,44.2,41.2,30.17,SSW,212,0.0,0.0,89,0.00,,,-99.99,Weather View 32 v60,2013-02-06 07:30:00,
2013-02-05 23:39:00,44.1,41.0,30.17,SSW,212,0.0,0.0,89,0.00,,,-99.99,Weather View 32 v60,2013-02-06 07:39:00,
2013-02-05 23:49:00,43.7,41.0,30.17,SSW,212,0.0,0.0,90,0.00,,,-99.99,Weather View 32 v60,2013-02-06 07:49:00,
2013-02-05 23:59:00,43.5,41.1,30.17,SSW,212,0.0,0.0,91,0.00,,,-99.99,Weather View 32 v60,2013-02-06 07:59:00,